Time;durP1;ratioP1;P1;durP2;ratioP2;P2;SDS_P1;SDS_P2;PMS_P1;PMS_P2;Temp;Humidity;BMP_temperature;BMP_pressure;BME280_temperature;BME280_humidity;BME280_pressure;Samples;Min_cycle;Max_cycle;Signal;HPM_P1;HPM_P2
2023/06/26 00:00:58;;;;;;;4.75;4.32;;;;;;;;;;5076030;28;20209;-71
2023/06/26 00:03:25;;;;;;;4.53;4.22;;;;;;;;;;5081259;28;20202;-72
2023/06/26 00:05:52;;;;;;;4.20;3.90;;;;;;;;;;5081888;28;20217;-72
2023/06/26 00:08:19;;;;;;;4.80;4.22;;;;;;;;;;5082420;28;20234;-71
2023/06/26 00:10:47;;;;;;;4.20;3.80;;;;;;;;;;5087117;27;20203;-71
2023/06/26 00:13:14;;;;;;;4.03;3.72;;;;;;;;;;5084096;28;20198;-71
2023/06/26 00:15:42;;;;;;;4.20;3.90;;;;;;;;;;5085361;28;20205;-71
2023/06/26 00:18:10;;;;;;;4.15;3.85;;;;;;;;;;5083289;28;20209;-71
2023/06/26 00:20:37;;;;;;;5.88;4.18;;;;;;;;;;5077522;28;20216;-71
2023/06/26 00:23:07;;;;;;;4.90;4.43;;;;;;;;;;5077766;28;20224;-72
2023/06/26 00:25:34;;;;;;;4.63;4.10;;;;;;;;;;5080306;28;20207;-72
2023/06/26 00:28:01;;;;;;;4.28;3.90;;;;;;;;;;5079295;28;20199;-72
2023/06/26 00:30:29;;;;;;;4.55;4.15;;;;;;;;;;5083907;28;20201;-71
2023/06/26 00:32:57;;;;;;;4.45;4.05;;;;;;;;;;5079412;28;20194;-72
2023/06/26 00:35:24;;;;;;;4.60;4.20;;;;;;;;;;5080737;28;20230;-72
2023/06/26 00:37:52;;;;;;;4.13;3.83;;;;;;;;;;5082966;28;20210;-72
2023/06/26 00:40:19;;;;;;;4.20;3.90;;;;;;;;;;5076700;28;20226;-72
2023/06/26 00:42:46;;;;;;;4.95;4.20;;;;;;;;;;5076648;28;20207;-72
2023/06/26 00:45:13;;;;;;;4.72;4.32;;;;;;;;;;5083371;28;20191;-72
2023/06/26 00:47:40;;;;;;;4.43;4.03;;;;;;;;;;5078837;28;20206;-72
2023/06/26 00:50:10;;;;;;;4.47;4.18;;;;;;;;;;5071626;28;20195;-72
2023/06/26 00:52:37;;;;;;;4.70;4.30;;;;;;;;;;5077107;28;20266;-72
2023/06/26 00:55:05;;;;;;;4.63;4.25;;;;;;;;;;5076506;28;20217;-72
2023/06/26 00:57:32;;;;;;;4.60;4.30;;;;;;;;;;5083848;28;20230;-72
2023/06/26 01:00:00;;;;;;;5.05;4.18;;;;;;;;;;5079708;28;20222;-72
2023/06/26 01:02:33;;;;;;;4.53;4.13;;;;;;;;;;5076803;28;20207;-72
2023/06/26 01:05:00;;;;;;;4.80;4.30;;;;;;;;;;5082841;28;20229;-72
2023/06/26 01:07:29;;;;;;;4.50;4.10;;;;;;;;;;5078966;28;20201;-72
2023/06/26 01:09:56;;;;;;;4.07;3.78;;;;;;;;;;5077788;28;20199;-71
2023/06/26 01:12:23;;;;;;;4.05;3.75;;;;;;;;;;5071743;28;20199;-72
2023/06/26 01:14:51;;;;;;;4.47;4.07;;;;;;;;;;5072609;28;20206;-72
2023/06/26 01:17:18;;;;;;;5.20;4.80;;;;;;;;;;5079793;28;20198;-71
2023/06/26 01:19:45;;;;;;;4.57;4.15;;;;;;;;;;5079740;28;20235;-72
2023/06/26 01:22:17;;;;;;;4.45;4.05;;;;;;;;;;5075950;28;20205;-71
2023/06/26 01:24:52;;;;;;;5.43;4.28;;;;;;;;;;5079661;28;20226;-72
2023/06/26 01:27:21;;;;;;;4.38;4.07;;;;;;;;;;5078944;28;20202;-72
2023/06/26 01:29:49;;;;;;;4.53;4.22;;;;;;;;;;5078838;28;20202;-72
2023/06/26 01:32:17;;;;;;;4.90;4.50;;;;;;;;;;5079848;28;20198;-72
2023/06/26 01:34:45;;;;;;;4.80;4.40;;;;;;;;;;5075751;28;20225;-72
2023/06/26 01:37:12;;;;;;;5.05;4.28;;;;;;;;;;5081008;28;20201;-72
2023/06/26 01:39:39;;;;;;;4.50;4.10;;;;;;;;;;5078946;28;20229;-72
2023/06/26 01:42:07;;;;;;;4.78;4.38;;;;;;;;;;5083560;28;20209;-72
2023/06/26 01:44:38;;;;;;;4.78;4.38;;;;;;;;;;5078376;28;20203;-71
2023/06/26 01:47:06;;;;;;;5.78;4.00;;;;;;;;;;5069435;28;20198;-71
2023/06/26 01:49:42;;;;;;;4.70;4.30;;;;;;;;;;5070241;28;20194;-71
2023/06/26 01:52:12;;;;;;;5.28;4.10;;;;;;;;;;5071722;28;20200;-71
2023/06/26 01:54:41;;;;;;;4.25;3.95;;;;;;;;;;5076374;28;20213;-71
2023/06/26 01:57:08;;;;;;;4.55;4.22;;;;;;;;;;5075384;28;20209;-72
2023/06/26 01:59:38;;;;;;;4.57;4.25;;;;;;;;;;5076791;28;20225;-71
2023/06/26 02:02:08;;;;;;;4.72;4.32;;;;;;;;;;5073612;28;20203;-72
2023/06/26 02:04:35;;;;;;;4.82;4.43;;;;;;;;;;5076001;28;20213;-72
2023/06/26 02:07:02;;;;;;;4.93;4.47;;;;;;;;;;5075578;28;20206;-72
2023/06/26 02:09:29;;;;;;;4.18;3.78;;;;;;;;;;5080497;28;20202;-71
2023/06/26 02:11:57;;;;;;;4.80;4.40;;;;;;;;;;5071721;28;20202;-72
2023/06/26 02:14:24;;;;;;;4.53;4.00;;;;;;;;;;5070579;28;20206;-72
2023/06/26 02:16:52;;;;;;;4.43;4.07;;;;;;;;;;5076196;28;20233;-72
2023/06/26 02:19:21;;;;;;;4.45;4.15;;;;;;;;;;5075513;28;20222;-72
2023/06/26 02:21:49;;;;;;;4.72;4.20;;;;;;;;;;5075646;28;20231;-72
2023/06/26 02:24:16;;;;;;;4.60;4.20;;;;;;;;;;5076870;28;20206;-73
2023/06/26 02:26:43;;;;;;;4.78;4.38;;;;;;;;;;5078667;28;20207;-72
2023/06/26 02:29:10;;;;;;;4.65;4.25;;;;;;;;;;5069879;28;20213;-72
2023/06/26 02:31:37;;;;;;;5.80;4.13;;;;;;;;;;5077669;28;20206;-72
2023/06/26 02:34:06;;;;;;;4.78;4.10;;;;;;;;;;5077221;28;20267;-72
2023/06/26 02:36:33;;;;;;;4.35;4.05;;;;;;;;;;5070879;28;20199;-72
2023/06/26 02:39:00;;;;;;;4.72;4.32;;;;;;;;;;5076001;28;20260;-73
2023/06/26 02:41:28;;;;;;;4.97;4.57;;;;;;;;;;5076745;28;20206;-72
2023/06/26 02:43:55;;;;;;;4.72;4.10;;;;;;;;;;5073238;28;20206;-72
2023/06/26 02:46:22;;;;;;;7.63;4.55;;;;;;;;;;5074151;28;20214;-72
2023/06/26 02:48:49;;;;;;;5.13;4.53;;;;;;;;;;5076652;28;20206;-72
2023/06/26 02:51:17;;;;;;;4.68;4.28;;;;;;;;;;5076358;28;20203;-72
2023/06/26 02:53:45;;;;;;;5.00;4.60;;;;;;;;;;5082217;28;20205;-72
2023/06/26 02:56:12;;;;;;;4.90;4.28;;;;;;;;;;5070504;28;20202;-73
2023/06/26 02:58:39;;;;;;;5.40;4.35;;;;;;;;;;5074128;28;20214;-75
2023/06/26 03:01:06;;;;;;;4.90;4.45;;;;;;;;;;5077164;28;20226;-72
2023/06/26 03:03:40;;;;;;;4.57;4.28;;;;;;;;;;5072440;28;20233;-73
2023/06/26 03:06:08;;;;;;;4.60;4.20;;;;;;;;;;5074986;28;20211;-72
2023/06/26 03:08:38;;;;;;;5.13;4.63;;;;;;;;;;5076134;28;20210;-72
2023/06/26 03:11:05;;;;;;;5.85;4.80;;;;;;;;;;5076654;28;20280;-72
2023/06/26 03:13:33;;;;;;;5.55;5.00;;;;;;;;;;5076547;28;20234;-72
2023/06/26 03:16:00;;;;;;;5.28;4.60;;;;;;;;;;5078284;28;20212;-73
2023/06/26 03:18:28;;;;;;;5.00;4.57;;;;;;;;;;5078658;28;20293;-72
2023/06/26 03:20:55;;;;;;;4.82;4.43;;;;;;;;;;5073817;28;20233;-73
2023/06/26 03:23:22;;;;;;;4.97;4.57;;;;;;;;;;5076064;28;20201;-72
2023/06/26 03:25:51;;;;;;;4.53;4.13;;;;;;;;;;5081829;28;20211;-72
2023/06/26 03:28:18;;;;;;;5.00;4.55;;;;;;;;;;5077339;28;20198;-71
2023/06/26 03:30:45;;;;;;;6.18;4.50;;;;;;;;;;5076305;28;20198;-64
2023/06/26 03:33:12;;;;;;;5.13;4.63;;;;;;;;;;5075817;28;20552;-65
2023/06/26 03:35:40;;;;;;;4.50;4.10;;;;;;;;;;5073014;28;20207;-65
2023/06/26 03:38:07;;;;;;;4.82;4.43;;;;;;;;;;5075959;28;20198;-64
2023/06/26 03:40:34;;;;;;;5.78;4.25;;;;;;;;;;5081981;28;20229;-64
2023/06/26 03:43:03;;;;;;;5.40;4.63;;;;;;;;;;5074613;28;20210;-64
2023/06/26 03:45:30;;;;;;;4.70;4.30;;;;;;;;;;5069812;28;20243;-65
2023/06/26 03:47:57;;;;;;;4.97;4.50;;;;;;;;;;5083171;28;20200;-64
2023/06/26 03:50:24;;;;;;;4.80;4.38;;;;;;;;;;5074185;28;20195;-65
2023/06/26 03:52:51;;;;;;;5.20;4.70;;;;;;;;;;5079676;28;20217;-65
2023/06/26 03:55:19;;;;;;;4.78;4.38;;;;;;;;;;5073709;28;20305;-64
2023/06/26 03:57:46;;;;;;;4.78;4.30;;;;;;;;;;5078229;28;20255;-64
2023/06/26 04:00:16;;;;;;;4.50;4.10;;;;;;;;;;5074766;28;20313;-64
2023/06/26 04:02:43;;;;;;;4.57;4.22;;;;;;;;;;5076849;28;20205;-64
2023/06/26 04:05:10;;;;;;;6.25;4.25;;;;;;;;;;5075828;28;20214;-64
2023/06/26 04:07:39;;;;;;;4.50;4.20;;;;;;;;;;5075510;28;20199;-63
2023/06/26 04:10:06;;;;;;;4.40;4.00;;;;;;;;;;5073157;28;20214;-63
2023/06/26 04:12:34;;;;;;;4.15;3.85;;;;;;;;;;5078006;28;20210;-63
2023/06/26 04:15:01;;;;;;;4.45;4.00;;;;;;;;;;5070949;28;20232;-63
2023/06/26 04:17:29;;;;;;;4.97;4.32;;;;;;;;;;5069537;28;20210;-63
2023/06/26 04:19:56;;;;;;;4.80;4.38;;;;;;;;;;5073572;28;20218;-63
2023/06/26 04:22:24;;;;;;;4.85;4.45;;;;;;;;;;5076432;28;20203;-63
2023/06/26 04:24:52;;;;;;;4.82;4.45;;;;;;;;;;5078420;28;20252;-64
2023/06/26 04:27:19;;;;;;;4.78;4.38;;;;;;;;;;5080840;28;20206;-63
2023/06/26 04:29:46;;;;;;;5.15;4.75;;;;;;;;;;5078950;28;20294;-64
2023/06/26 04:32:13;;;;;;;6.63;4.80;;;;;;;;;;5078526;28;20202;-67
2023/06/26 04:34:43;;;;;;;5.20;4.80;;;;;;;;;;5079271;28;20242;-67
2023/06/26 04:37:11;;;;;;;5.63;4.70;;;;;;;;;;5073170;28;20255;-66
2023/06/26 04:39:38;;;;;;;5.15;4.72;;;;;;;;;;5076081;28;20205;-67
2023/06/26 04:42:06;;;;;;;5.75;5.07;;;;;;;;;;5078511;28;20245;-64
2023/06/26 04:44:33;;;;;;;6.03;4.70;;;;;;;;;;5076290;28;20206;-64
2023/06/26 04:47:00;;;;;;;5.15;4.68;;;;;;;;;;5077971;28;20206;-63
2023/06/26 04:49:28;;;;;;;5.47;4.97;;;;;;;;;;5083398;28;20203;-65
2023/06/26 04:51:59;;;;;;;5.38;4.90;;;;;;;;;;5076929;28;20199;-67
2023/06/26 04:54:27;;;;;;;5.18;4.78;;;;;;;;;;5081406;28;20202;-67
2023/06/26 04:56:54;;;;;;;5.68;5.13;;;;;;;;;;5081440;28;20211;-67
2023/06/26 04:59:21;;;;;;;5.25;4.85;;;;;;;;;;5079029;28;20206;-67
2023/06/26 05:01:48;;;;;;;7.57;5.40;;;;;;;;;;5071723;28;20217;-68
2023/06/26 05:04:16;;;;;;;5.63;5.13;;;;;;;;;;5074353;28;20203;-67
2023/06/26 05:06:43;;;;;;;5.43;4.95;;;;;;;;;;5082105;28;20234;-67
2023/06/26 05:09:11;;;;;;;6.25;5.00;;;;;;;;;;5073790;28;20209;-67
2023/06/26 05:11:39;;;;;;;5.45;4.95;;;;;;;;;;5074459;28;20206;-66
2023/06/26 05:14:07;;;;;;;5.30;4.90;;;;;;;;;;5071744;28;20209;-65
2023/06/26 05:16:35;;;;;;;7.53;4.85;;;;;;;;;;5077569;28;20206;-66
2023/06/26 05:19:02;;;;;;;5.03;4.63;;;;;;;;;;5076229;28;20214;-66
2023/06/26 05:21:30;;;;;;;5.13;4.72;;;;;;;;;;5075483;28;20223;-66
2023/06/26 05:23:58;;;;;;;5.45;4.95;;;;;;;;;;5077150;28;20202;-66
2023/06/26 05:26:28;;;;;;;5.40;4.90;;;;;;;;;;5074255;28;20203;-66
2023/06/26 05:28:55;;;;;;;5.22;4.40;;;;;;;;;;5072997;28;20202;-67
2023/06/26 05:31:23;;;;;;;5.88;5.03;;;;;;;;;;5077476;28;20199;-67
2023/06/26 05:33:51;;;;;;;4.95;4.55;;;;;;;;;;5073313;28;20242;-68
2023/06/26 05:36:19;;;;;;;5.25;4.80;;;;;;;;;;5074565;28;20206;-68
2023/06/26 05:38:48;;;;;;;5.43;4.93;;;;;;;;;;5077603;28;20202;-68
2023/06/26 05:41:15;;;;;;;5.03;4.50;;;;;;;;;;5077589;28;20230;-67
2023/06/26 05:43:44;;;;;;;5.47;4.97;;;;;;;;;;5070025;28;20211;-67
2023/06/26 05:46:11;;;;;;;5.05;4.65;;;;;;;;;;5072557;28;20289;-68
2023/06/26 05:48:39;;;;;;;5.05;4.65;;;;;;;;;;5075097;28;20199;-68
2023/06/26 05:51:06;;;;;;;5.15;4.45;;;;;;;;;;5070172;28;20222;-68
2023/06/26 05:53:34;;;;;;;5.43;4.93;;;;;;;;;;5075141;28;20210;-68
2023/06/26 05:56:01;;;;;;;5.00;4.50;;;;;;;;;;5077321;28;20202;-68
2023/06/26 05:58:28;;;;;;;4.90;4.50;;;;;;;;;;5077774;28;20201;-68
2023/06/26 06:00:57;;;;;;;5.15;4.55;;;;;;;;;;5078182;28;20215;-67
2023/06/26 06:03:25;;;;;;;4.85;4.20;;;;;;;;;;5078172;28;20285;-68
2023/06/26 06:05:52;;;;;;;5.57;4.55;;;;;;;;;;5079129;28;20202;-68
2023/06/26 06:08:19;;;;;;;6.57;4.65;;;;;;;;;;5074918;28;20209;-68
2023/06/26 06:10:46;;;;;;;5.57;4.95;;;;;;;;;;5069815;28;20202;-67
2023/06/26 06:13:13;;;;;;;5.00;4.50;;;;;;;;;;5077931;28;20202;-68
2023/06/26 06:15:40;;;;;;;5.20;4.70;;;;;;;;;;5075954;28;20209;-67
2023/06/26 06:18:09;;;;;;;4.30;4.00;;;;;;;;;;5076678;28;20226;-66
2023/06/26 06:20:36;;;;;;;4.45;4.05;;;;;;;;;;5070920;28;20225;-66
2023/06/26 06:23:03;;;;;;;4.60;4.20;;;;;;;;;;5076109;28;20213;-66
2023/06/26 06:25:31;;;;;;;4.30;3.90;;;;;;;;;;5081273;28;20217;-67
2023/06/26 06:27:58;;;;;;;4.43;4.00;;;;;;;;;;5075363;28;20199;-67
2023/06/26 06:30:25;;;;;;;3.95;3.55;;;;;;;;;;5079238;28;20205;-66
2023/06/26 06:32:52;;;;;;;5.45;3.72;;;;;;;;;;5075938;28;20205;-66
2023/06/26 06:35:21;;;;;;;3.70;3.40;;;;;;;;;;5075581;28;20250;-65
2023/06/26 06:37:48;;;;;;;3.53;3.22;;;;;;;;;;5077453;28;20195;-66
2023/06/26 06:40:15;;;;;;;3.50;3.30;;;;;;;;;;5071433;28;20206;-66
2023/06/26 06:42:43;;;;;;;3.30;3.00;;;;;;;;;;5073421;28;20231;-66
2023/06/26 06:45:11;;;;;;;3.25;2.80;;;;;;;;;;5072704;28;20229;-66
2023/06/26 06:47:38;;;;;;;3.35;3.10;;;;;;;;;;5069117;28;20288;-66
2023/06/26 06:50:08;;;;;;;4.93;3.13;;;;;;;;;;5076243;28;20215;-66
2023/06/26 06:52:38;;;;;;;3.08;2.80;;;;;;;;;;5071149;28;20210;-66
2023/06/26 06:55:08;;;;;;;2.88;2.67;;;;;;;;;;5072687;28;20203;-66
2023/06/26 06:57:37;;;;;;;3.25;2.95;;;;;;;;;;5072298;28;20285;-67
2023/06/26 07:00:05;;;;;;;3.38;2.95;;;;;;;;;;5073641;28;20207;-66
2023/06/26 07:02:32;;;;;;;3.28;3.05;;;;;;;;;;5068715;28;20202;-67
2023/06/26 07:04:59;;;;;;;5.70;3.08;;;;;;;;;;5076116;28;20224;-67
2023/06/26 07:07:30;;;;;;;3.60;3.28;;;;;;;;;;5077257;28;20225;-66
2023/06/26 07:09:59;;;;;;;3.88;3.33;;;;;;;;;;5075657;28;20255;-67
2023/06/26 07:12:26;;;;;;;2.95;2.75;;;;;;;;;;5072361;28;20207;-66
2023/06/26 07:14:53;;;;;;;3.53;2.97;;;;;;;;;;5071400;28;20297;-67
2023/06/26 07:17:21;;;;;;;4.25;3.03;;;;;;;;;;5074289;28;20241;-67
2023/06/26 07:19:48;;;;;;;2.95;2.75;;;;;;;;;;5071264;28;20219;-67
2023/06/26 07:22:15;;;;;;;3.08;2.70;;;;;;;;;;5072264;28;20218;-68
2023/06/26 07:24:42;;;;;;;4.47;2.90;;;;;;;;;;5068413;28;20229;-67
2023/06/26 07:27:11;;;;;;;3.30;2.75;;;;;;;;;;5075644;28;20217;-67
2023/06/26 07:29:38;;;;;;;2.60;2.40;;;;;;;;;;5073750;28;20285;-67
2023/06/26 07:32:06;;;;;;;3.67;2.78;;;;;;;;;;5077209;28;20214;-70
2023/06/26 07:34:33;;;;;;;3.00;2.30;;;;;;;;;;5081277;28;20238;-67
2023/06/26 07:37:00;;;;;;;2.70;2.50;;;;;;;;;;5080472;28;20210;-69
2023/06/26 07:39:28;;;;;;;3.35;2.55;;;;;;;;;;5079863;28;20206;-67
2023/06/26 07:41:55;;;;;;;6.55;2.60;;;;;;;;;;5078527;28;20226;-71
2023/06/26 07:44:23;;;;;;;2.65;2.40;;;;;;;;;;5079362;28;20294;-67
2023/06/26 07:46:51;;;;;;;2.63;2.42;;;;;;;;;;5083235;28;20218;-69
2023/06/26 07:49:18;;;;;;;4.22;2.40;;;;;;;;;;5083681;28;20198;-66
2023/06/26 07:51:45;;;;;;;3.70;2.40;;;;;;;;;;5076365;28;20198;-66
2023/06/26 07:54:12;;;;;;;2.55;2.35;;;;;;;;;;5083193;28;20293;-68
2023/06/26 07:56:54;;;;;;;2.88;1.85;;;;;;;;;;5079339;28;20206;-66
2023/06/26 07:59:22;;;;;;;3.28;2.15;;;;;;;;;;5083898;28;20213;-67
2023/06/26 08:01:50;;;;;;;2.20;2.00;;;;;;;;;;5082926;28;20226;-69
2023/06/26 08:04:20;;;;;;;2.03;1.90;;;;;;;;;;5074078;28;20218;-66
2023/06/26 08:06:47;;;;;;;3.55;1.80;;;;;;;;;;5082242;28;20195;-64
2023/06/26 08:09:14;;;;;;;3.03;2.10;;;;;;;;;;5080501;28;20194;-69
2023/06/26 08:11:41;;;;;;;1.95;1.70;;;;;;;;;;5078880;28;20190;-66
2023/06/26 08:14:08;;;;;;;2.83;2.03;;;;;;;;;;5084128;28;20210;-65
2023/06/26 08:16:36;;;;;;;1.92;1.60;;;;;;;;;;5082390;28;20202;-68
2023/06/26 08:19:04;;;;;;;2.67;1.80;;;;;;;;;;5080992;28;20203;-67
2023/06/26 08:21:31;;;;;;;2.25;2.00;;;;;;;;;;5079987;28;20223;-67
2023/06/26 08:23:59;;;;;;;3.13;1.83;;;;;;;;;;5081109;28;20211;-66
2023/06/26 08:26:26;;;;;;;2.58;1.95;;;;;;;;;;5083416;28;20199;-67
2023/06/26 08:28:53;;;;;;;4.07;1.98;;;;;;;;;;5078212;28;20213;-69
2023/06/26 08:31:20;;;;;;;2.00;1.80;;;;;;;;;;5087861;28;20202;-70
2023/06/26 08:33:47;;;;;;;1.98;1.58;;;;;;;;;;5080746;28;20234;-69
2023/06/26 08:36:16;;;;;;;3.22;1.90;;;;;;;;;;5075058;28;20203;-66
2023/06/26 08:38:44;;;;;;;2.33;1.88;;;;;;;;;;5078446;28;20206;-68
2023/06/26 08:41:12;;;;;;;2.33;2.00;;;;;;;;;;5079003;28;20198;-69
2023/06/26 08:43:39;;;;;;;2.90;1.95;;;;;;;;;;5078709;28;20214;-67
2023/06/26 08:46:06;;;;;;;3.17;1.90;;;;;;;;;;5082079;28;20206;-72
2023/06/26 08:48:34;;;;;;;3.70;1.70;;;;;;;;;;5082165;28;20206;-69
2023/06/26 08:51:03;;;;;;;2.10;1.90;;;;;;;;;;5080647;28;20214;-68
2023/06/26 08:53:35;;;;;;;2.97;1.98;;;;;;;;;;5083279;28;20270;-69
2023/06/26 08:56:03;;;;;;;3.20;2.17;;;;;;;;;;5077268;28;20209;-68
2023/06/26 08:58:31;;;;;;;5.03;2.20;;;;;;;;;;5080281;28;20204;-65
2023/06/26 09:00:59;;;;;;;2.67;2.03;;;;;;;;;;5082739;28;20205;-65
2023/06/26 09:03:26;;;;;;;4.95;2.72;;;;;;;;;;5076365;28;20218;-65
2023/06/26 09:05:54;;;;;;;2.30;2.03;;;;;;;;;;5081117;28;20214;-66
2023/06/26 09:08:21;;;;;;;4.45;1.92;;;;;;;;;;5080608;28;20198;-70
2023/06/26 09:10:49;;;;;;;4.68;2.47;;;;;;;;;;5075923;28;20198;-69
2023/06/26 09:13:16;;;;;;;4.43;2.45;;;;;;;;;;5079186;28;20203;-67
2023/06/26 09:15:44;;;;;;;3.28;2.17;;;;;;;;;;5088994;28;20206;-69
2023/06/26 09:18:12;;;;;;;4.32;2.22;;;;;;;;;;5078718;28;20206;-70
2023/06/26 09:20:39;;;;;;;4.75;2.50;;;;;;;;;;5079790;28;20215;-65
2023/06/26 09:23:06;;;;;;;11.30;2.60;;;;;;;;;;5076121;28;20226;-67
2023/06/26 09:25:34;;;;;;;4.40;2.40;;;;;;;;;;5081521;28;20195;-70
2023/06/26 09:28:02;;;;;;;4.47;2.55;;;;;;;;;;5075908;28;20209;-65
2023/06/26 09:30:30;;;;;;;3.00;2.35;;;;;;;;;;5081390;28;20202;-67
2023/06/26 09:32:57;;;;;;;3.08;2.15;;;;;;;;;;5084976;28;20213;-68
2023/06/26 09:35:24;;;;;;;2.65;2.20;;;;;;;;;;5077607;28;20230;-70
2023/06/26 09:37:52;;;;;;;5.43;2.40;;;;;;;;;;5082360;28;20206;-67
2023/06/26 09:40:19;;;;;;;4.13;2.35;;;;;;;;;;5074035;28;20206;-68
2023/06/26 09:42:47;;;;;;;4.55;2.63;;;;;;;;;;5075784;28;20227;-70
2023/06/26 09:45:21;;;;;;;10.32;2.33;;;;;;;;;;5081437;28;20198;-68
2023/06/26 09:47:48;;;;;;;4.85;2.00;;;;;;;;;;5083501;28;20201;-66
2023/06/26 09:50:27;;;;;;;3.63;2.22;;;;;;;;;;5075533;28;20206;-68
2023/06/26 09:52:54;;;;;;;4.88;2.60;;;;;;;;;;5074599;28;20229;-66
2023/06/26 09:55:22;;;;;;;2.80;2.20;;;;;;;;;;5082113;28;20209;-67
2023/06/26 09:57:49;;;;;;;4.07;2.22;;;;;;;;;;5072733;28;20254;-67
2023/06/26 10:00:17;;;;;;;3.33;1.98;;;;;;;;;;5073419;28;20202;-68
2023/06/26 10:02:45;;;;;;;7.10;2.10;;;;;;;;;;5087916;28;20222;-68
2023/06/26 10:05:13;;;;;;;2.33;1.80;;;;;;;;;;5073860;28;20275;-66
2023/06/26 10:07:40;;;;;;;5.45;2.20;;;;;;;;;;5081783;28;20215;-67
2023/06/26 10:10:09;;;;;;;4.40;2.05;;;;;;;;;;5077164;28;20229;-67
2023/06/26 10:12:36;;;;;;;3.25;2.00;;;;;;;;;;5076689;28;20205;-68
2023/06/26 10:15:04;;;;;;;3.65;1.88;;;;;;;;;;5077197;28;20203;-68
2023/06/26 10:17:33;;;;;;;4.15;2.20;;;;;;;;;;5075199;28;20198;-67
2023/06/26 10:20:03;;;;;;;3.13;2.00;;;;;;;;;;5085476;28;20206;-67
2023/06/26 10:22:31;;;;;;;2.63;1.85;;;;;;;;;;5084301;28;20226;-67
2023/06/26 10:25:00;;;;;;;6.18;1.90;;;;;;;;;;5077457;28;20218;-67
2023/06/26 10:27:31;;;;;;;4.20;1.80;;;;;;;;;;5087999;28;20217;-68
2023/06/26 10:30:00;;;;;;;2.53;1.90;;;;;;;;;;5086639;28;20309;-67
2023/06/26 10:32:28;;;;;;;3.03;1.70;;;;;;;;;;5072339;28;20211;-67
2023/06/26 10:34:56;;;;;;;4.60;2.00;;;;;;;;;;5072242;28;20238;-66
2023/06/26 10:37:42;;;;;;;3.83;2.10;;;;;;;;;;5074545;28;20212;-68
2023/06/26 10:40:09;;;;;;;2.72;1.70;;;;;;;;;;5080312;28;20214;-67
2023/06/26 10:42:37;;;;;;;4.95;1.80;;;;;;;;;;5083763;28;20219;-66
2023/06/26 10:45:11;;;;;;;3.58;1.90;;;;;;;;;;5085358;28;20214;-69
2023/06/26 10:47:38;;;;;;;2.60;1.90;;;;;;;;;;5087877;28;20210;-68
2023/06/26 10:50:18;;;;;;;3.08;1.50;;;;;;;;;;5081998;28;20248;-69
2023/06/26 10:52:48;;;;;;;2.50;1.80;;;;;;;;;;5076805;28;20206;-67
2023/06/26 10:55:16;;;;;;;2.55;1.60;;;;;;;;;;5085239;28;20202;-68
2023/06/26 10:57:49;;;;;;;2.85;1.80;;;;;;;;;;5081373;28;20214;-68
2023/06/26 11:00:18;;;;;;;3.58;1.52;;;;;;;;;;5070989;28;20306;-68
2023/06/26 11:02:51;;;;;;;4.15;1.88;;;;;;;;;;5085472;28;20237;-66
2023/06/26 11:05:26;;;;;;;3.17;1.60;;;;;;;;;;5083019;28;20210;-67
2023/06/26 11:08:12;;;;;;;2.17;1.58;;;;;;;;;;5084086;28;20208;-68
2023/06/26 11:10:53;;;;;;;2.00;1.50;;;;;;;;;;5080677;28;20210;-68
2023/06/26 11:13:20;;;;;;;1.65;1.40;;;;;;;;;;5083251;28;20237;-68
2023/06/26 11:15:48;;;;;;;2.42;1.60;;;;;;;;;;5082804;28;20199;-66
2023/06/26 11:18:15;;;;;;;2.10;1.52;;;;;;;;;;5083058;28;20273;-67
2023/06/26 11:20:42;;;;;;;2.53;1.60;;;;;;;;;;5081984;28;20232;-66
2023/06/26 11:23:11;;;;;;;3.55;1.60;;;;;;;;;;5075918;28;20221;-67
2023/06/26 11:25:39;;;;;;;4.60;1.50;;;;;;;;;;5082395;28;20217;-66
2023/06/26 11:28:07;;;;;;;4.10;1.70;;;;;;;;;;5083162;28;20203;-68
2023/06/26 11:30:34;;;;;;;2.92;1.30;;;;;;;;;;5074837;28;20237;-67
2023/06/26 11:33:04;;;;;;;3.42;1.58;;;;;;;;;;5071934;28;20194;-67
2023/06/26 11:35:32;;;;;;;2.45;1.33;;;;;;;;;;5073216;28;20238;-67
2023/06/26 11:38:01;;;;;;;1.85;1.60;;;;;;;;;;5082360;28;20304;-66
2023/06/26 11:40:31;;;;;;;3.70;1.40;;;;;;;;;;5078176;28;20198;-67
2023/06/26 11:42:59;;;;;;;4.20;1.40;;;;;;;;;;5072429;28;20230;-67
2023/06/26 11:45:26;;;;;;;2.63;1.27;;;;;;;;;;5078431;28;20201;-67
2023/06/26 11:47:54;;;;;;;2.90;1.65;;;;;;;;;;5076690;28;20293;-67
2023/06/26 11:50:21;;;;;;;3.17;1.55;;;;;;;;;;5081833;28;20209;-67
2023/06/26 11:52:54;;;;;;;2.47;1.33;;;;;;;;;;5075999;28;20205;-65
2023/06/26 11:55:22;;;;;;;2.08;1.60;;;;;;;;;;5076136;28;20202;-68
2023/06/26 11:57:51;;;;;;;3.25;1.65;;;;;;;;;;5077597;28;20221;-68
2023/06/26 12:00:18;;;;;;;2.85;1.30;;;;;;;;;;5071975;28;20202;-66
2023/06/26 12:02:46;;;;;;;1.98;1.30;;;;;;;;;;5074911;28;20223;-69
2023/06/26 12:05:14;;;;;;;2.47;1.33;;;;;;;;;;5079569;28;20206;-65
2023/06/26 12:07:42;;;;;;;2.47;1.55;;;;;;;;;;5076974;28;20202;-68
2023/06/26 12:10:10;;;;;;;3.47;1.40;;;;;;;;;;5081757;28;20209;-69
2023/06/26 12:12:37;;;;;;;1.33;1.10;;;;;;;;;;5077906;28;20199;-67
2023/06/26 12:15:07;;;;;;;2.10;1.40;;;;;;;;;;5074699;28;20343;-66
2023/06/26 12:17:34;;;;;;;2.67;1.40;;;;;;;;;;5076975;28;20210;-66
2023/06/26 12:20:03;;;;;;;6.43;1.48;;;;;;;;;;5077516;28;20216;-65
2023/06/26 12:22:35;;;;;;;4.90;1.65;;;;;;;;;;5075036;28;20203;-66
2023/06/26 12:25:02;;;;;;;3.17;1.67;;;;;;;;;;5070428;28;20293;-65
2023/06/26 12:27:30;;;;;;;2.97;1.50;;;;;;;;;;5081724;28;20210;-67
2023/06/26 12:29:57;;;;;;;1.52;1.40;;;;;;;;;;5075822;28;20206;-66
2023/06/26 12:32:26;;;;;;;3.58;1.45;;;;;;;;;;5076961;28;20206;-68
2023/06/26 12:34:54;;;;;;;1.70;1.33;;;;;;;;;;5076989;28;20237;-67
2023/06/26 12:37:21;;;;;;;2.45;1.40;;;;;;;;;;5075316;28;20206;-66
2023/06/26 12:39:48;;;;;;;4.30;1.45;;;;;;;;;;5073042;28;20207;-66
2023/06/26 12:42:17;;;;;;;4.10;2.00;;;;;;;;;;5075527;28;20207;-67
2023/06/26 12:44:44;;;;;;;6.80;1.73;;;;;;;;;;5077692;28;20222;-67
2023/06/26 12:47:13;;;;;;;3.95;1.70;;;;;;;;;;5082894;28;20198;-66
2023/06/26 12:49:42;;;;;;;4.25;1.35;;;;;;;;;;5080075;28;20297;-67
2023/06/26 12:52:10;;;;;;;3.13;1.60;;;;;;;;;;5074033;28;20210;-67
2023/06/26 12:54:37;;;;;;;3.17;1.50;;;;;;;;;;5073059;28;20203;-66
2023/06/26 12:57:05;;;;;;;4.22;1.65;;;;;;;;;;5080948;28;20198;-68
2023/06/26 12:59:32;;;;;;;6.88;1.80;;;;;;;;;;5079285;28;20199;-69
2023/06/26 13:01:59;;;;;;;2.03;1.45;;;;;;;;;;5079628;28;20202;-67
2023/06/26 13:04:27;;;;;;;2.00;1.40;;;;;;;;;;5076436;28;20229;-68
2023/06/26 13:06:55;;;;;;;2.95;1.40;;;;;;;;;;5080197;28;20206;-67
2023/06/26 13:09:23;;;;;;;3.78;1.58;;;;;;;;;;5078433;28;20206;-66
2023/06/26 13:11:50;;;;;;;3.47;1.73;;;;;;;;;;5080445;28;20202;-67
2023/06/26 13:14:17;;;;;;;3.63;1.55;;;;;;;;;;5079940;28;20202;-66
2023/06/26 13:16:45;;;;;;;2.65;1.63;;;;;;;;;;5083990;28;20203;-66
2023/06/26 13:19:12;;;;;;;1.75;1.35;;;;;;;;;;5079406;28;20194;-68
2023/06/26 13:21:39;;;;;;;2.92;1.60;;;;;;;;;;5078182;28;20202;-66
2023/06/26 13:24:08;;;;;;;4.72;1.67;;;;;;;;;;5078640;28;20229;-67
2023/06/26 13:26:35;;;;;;;2.17;1.63;;;;;;;;;;5076657;28;20228;-67
2023/06/26 13:29:02;;;;;;;1.73;1.30;;;;;;;;;;5083584;28;20214;-67
2023/06/26 13:31:29;;;;;;;3.13;1.45;;;;;;;;;;5078116;28;20198;-69
2023/06/26 13:33:59;;;;;;;4.55;1.40;;;;;;;;;;5082121;28;20231;-68
2023/06/26 13:36:26;;;;;;;4.90;1.70;;;;;;;;;;5084741;28;20198;-69
2023/06/26 13:38:55;;;;;;;2.30;1.38;;;;;;;;;;5082964;28;20319;-69
2023/06/26 13:41:24;;;;;;;4.45;1.50;;;;;;;;;;5072280;28;20207;-68
2023/06/26 13:43:51;;;;;;;3.78;1.55;;;;;;;;;;5077084;28;20238;-65
2023/06/26 13:46:18;;;;;;;2.30;1.60;;;;;;;;;;5085250;28;20214;-66
2023/06/26 13:48:45;;;;;;;2.53;1.50;;;;;;;;;;5072905;28;20202;-66
2023/06/26 13:51:13;;;;;;;2.85;1.40;;;;;;;;;;5084591;28;20206;-67
2023/06/26 13:53:40;;;;;;;3.38;1.50;;;;;;;;;;5074397;28;20210;-68
2023/06/26 13:56:07;;;;;;;2.70;1.40;;;;;;;;;;5074928;28;20294;-66
2023/06/26 13:58:39;;;;;;;3.20;1.50;;;;;;;;;;5077764;28;20217;-65
2023/06/26 14:01:06;;;;;;;2.33;1.70;;;;;;;;;;5074387;28;20202;-66
2023/06/26 14:03:33;;;;;;;4.53;1.50;;;;;;;;;;5074199;28;20223;-67
2023/06/26 14:06:01;;;;;;;4.75;1.60;;;;;;;;;;5078249;28;20216;-66
2023/06/26 14:08:28;;;;;;;2.33;1.50;;;;;;;;;;5080307;28;20206;-66
2023/06/26 14:10:55;;;;;;;3.20;1.30;;;;;;;;;;5077390;28;20211;-66
2023/06/26 14:13:22;;;;;;;2.85;1.55;;;;;;;;;;5075974;28;20194;-67
2023/06/26 14:15:52;;;;;;;3.10;1.80;;;;;;;;;;5079486;28;20202;-65
2023/06/26 14:18:20;;;;;;;3.58;1.52;;;;;;;;;;5077120;28;20206;-66
2023/06/26 14:20:48;;;;;;;4.13;1.80;;;;;;;;;;5075143;28;20210;-64
2023/06/26 14:23:15;;;;;;;2.60;1.50;;;;;;;;;;5086521;28;20210;-67
2023/06/26 14:25:42;;;;;;;3.95;1.67;;;;;;;;;;5090413;28;20210;-67
2023/06/26 14:28:09;;;;;;;2.95;1.30;;;;;;;;;;5090899;28;20210;-66
2023/06/26 14:30:36;;;;;;;2.47;1.40;;;;;;;;;;5074704;28;20203;-67
2023/06/26 14:33:05;;;;;;;2.95;1.25;;;;;;;;;;5084812;28;20208;-65
2023/06/26 14:35:32;;;;;;;3.78;1.73;;;;;;;;;;5082473;28;20235;-66
2023/06/26 14:37:59;;;;;;;2.38;1.58;;;;;;;;;;5076745;28;20218;-67
2023/06/26 14:40:26;;;;;;;2.10;1.40;;;;;;;;;;5078183;28;20206;-65
2023/06/26 14:42:53;;;;;;;4.32;1.50;;;;;;;;;;5082155;28;20214;-65
2023/06/26 14:45:21;;;;;;;3.80;1.70;;;;;;;;;;5074901;28;20280;-67
2023/06/26 14:47:48;;;;;;;3.80;1.40;;;;;;;;;;5079227;28;20213;-66